createdAt,value
2017-12-22T00:00:05.164Z,7.50
2017-12-22T00:02:31.884Z,7.60
2017-12-22T00:04:57.836Z,7.60
2017-12-22T00:07:23.820Z,7.50
2017-12-22T00:09:49.796Z,7.40
2017-12-22T00:12:15.744Z,7.50
2017-12-22T00:14:41.725Z,7.50
2017-12-22T00:17:07.693Z,7.40
2017-12-22T00:19:33.942Z,7.40
2017-12-22T00:21:59.904Z,7.40
2017-12-22T00:24:25.880Z,7.40
2017-12-22T00:26:51.856Z,7.40
2017-12-22T00:29:17.828Z,7.40
2017-12-22T00:31:43.784Z,7.50
2017-12-22T00:34:11.710Z,7.50
2017-12-22T00:36:37.674Z,7.50
2017-12-22T00:39:03.624Z,7.50
2017-12-22T00:41:29.588Z,7.50
2017-12-22T00:43:56.332Z,7.50
2017-12-22T00:46:23.017Z,7.50
2017-12-22T00:48:48.984Z,7.50
2017-12-22T00:51:15.682Z,7.50
2017-12-22T00:53:41.645Z,7.50
2017-12-22T00:56:08.343Z,7.60
2017-12-22T00:58:34.338Z,7.60
2017-12-22T01:01:00.297Z,7.60
2017-12-22T01:03:26.243Z,7.70
2017-12-22T01:05:53.388Z,7.60
2017-12-22T01:08:19.336Z,7.60
2017-12-22T01:10:45.293Z,7.60
2017-12-22T01:13:11.256Z,7.60
2017-12-22T01:15:44.071Z,7.60
2017-12-22T01:18:16.316Z,7.60
2017-12-22T01:20:43.000Z,7.40
2017-12-22T01:23:09.000Z,7.40
2017-12-22T01:25:35.120Z,7.40
2017-12-22T01:28:01.097Z,7.40
2017-12-22T01:30:27.058Z,7.50
2017-12-22T01:32:53.040Z,7.50
2017-12-22T01:35:18.992Z,7.50
2017-12-22T01:37:45.702Z,7.30
2017-12-22T01:40:11.689Z,7.30
2017-12-22T01:42:37.628Z,7.40
2017-12-22T01:45:03.683Z,7.40
2017-12-22T01:47:30.407Z,7.40
2017-12-22T01:49:56.364Z,7.40
2017-12-22T01:52:22.340Z,7.40
2017-12-22T01:54:48.324Z,7.40
2017-12-22T01:57:14.291Z,7.40
2017-12-22T01:59:40.239Z,7.50
2017-12-22T02:02:06.236Z,7.50
2017-12-22T02:04:32.181Z,7.40
2017-12-22T02:06:58.133Z,7.40
2017-12-22T02:09:24.088Z,7.30
2017-12-22T02:11:50.052Z,7.40
2017-12-22T02:14:16.039Z,7.30
2017-12-22T02:16:41.987Z,7.30
2017-12-22T02:19:08.180Z,7.30
2017-12-22T02:21:34.152Z,7.40
2017-12-22T02:24:00.144Z,7.40
2017-12-22T02:26:26.848Z,7.50
2017-12-22T02:28:52.824Z,7.50
2017-12-22T02:31:18.798Z,7.50
2017-12-22T02:33:44.751Z,7.50
2017-12-22T02:36:11.454Z,7.60
2017-12-22T02:38:37.464Z,7.60
2017-12-22T02:41:03.436Z,7.60
2017-12-22T02:43:30.119Z,7.60
2017-12-22T02:45:56.104Z,7.60
2017-12-22T02:48:22.620Z,7.80
2017-12-22T02:50:49.328Z,7.60
2017-12-22T02:53:15.293Z,7.60
2017-12-22T02:55:41.245Z,7.50
2017-12-22T02:58:07.203Z,7.60
2017-12-22T03:00:33.166Z,7.60
2017-12-22T03:02:59.112Z,7.60
2017-12-22T03:05:25.072Z,7.60
2017-12-22T03:07:51.032Z,7.50
2017-12-22T03:10:16.996Z,7.50
2017-12-22T03:12:42.943Z,7.40
2017-12-22T03:15:09.679Z,7.40
2017-12-22T03:17:36.375Z,7.40
2017-12-22T03:20:02.343Z,7.40
2017-12-22T03:22:29.083Z,7.50
2017-12-22T03:24:56.588Z,7.50
2017-12-22T03:27:22.557Z,7.50
2017-12-22T03:29:55.195Z,7.40
2017-12-22T03:32:21.184Z,7.40
2017-12-22T03:34:47.133Z,7.30
2017-12-22T03:37:13.109Z,7.40
2017-12-22T03:39:39.836Z,7.40
2017-12-22T03:42:05.796Z,7.40
2017-12-22T03:44:31.740Z,7.50
2017-12-22T03:46:57.687Z,7.40
2017-12-22T03:49:23.644Z,7.40
2017-12-22T03:51:49.599Z,7.40
2017-12-22T03:54:15.576Z,7.40
2017-12-22T03:56:42.284Z,7.40
2017-12-22T03:59:09.031Z,7.30
2017-12-22T04:01:34.989Z,7.30
2017-12-22T04:04:00.977Z,7.40
2017-12-22T04:06:27.720Z,7.40
2017-12-22T04:08:54.429Z,7.40
2017-12-22T04:11:20.396Z,7.40
2017-12-22T04:13:47.104Z,7.40
2017-12-22T04:16:13.088Z,7.40
2017-12-22T04:18:39.036Z,7.40
2017-12-22T04:21:05.029Z,7.30
2017-12-22T04:23:30.979Z,7.30
2017-12-22T04:25:56.956Z,7.30
2017-12-22T04:28:23.445Z,7.40
2017-12-22T04:30:49.400Z,7.50
2017-12-22T04:33:16.111Z,7.50
2017-12-22T04:35:42.092Z,7.50
2017-12-22T04:38:08.043Z,7.50
2017-12-22T04:40:34.002Z,7.50
2017-12-22T04:43:07.871Z,7.50
2017-12-22T04:45:33.861Z,7.50
2017-12-22T04:47:59.819Z,7.50
2017-12-22T04:50:25.794Z,7.50
2017-12-22T04:52:51.752Z,7.50
2017-12-22T04:55:17.691Z,7.60
2017-12-22T04:57:43.647Z,7.50
2017-12-22T05:00:09.599Z,7.50
2017-12-22T05:02:42.704Z,7.60
2017-12-22T05:05:08.665Z,7.60
2017-12-22T05:07:34.645Z,7.50
2017-12-22T05:10:00.596Z,7.50
2017-12-22T05:12:27.309Z,7.60
2017-12-22T05:14:53.276Z,7.60
2017-12-22T05:17:19.244Z,7.60
2017-12-22T05:19:45.221Z,7.60
2017-12-22T05:22:11.351Z,7.60
2017-12-22T05:24:37.312Z,7.70
2017-12-22T05:27:03.295Z,7.60
2017-12-22T05:29:29.290Z,7.50
2017-12-22T05:31:56.003Z,7.40
2017-12-22T05:34:21.958Z,7.40
2017-12-22T05:36:48.661Z,7.40
2017-12-22T05:39:14.624Z,7.30
2017-12-22T05:41:40.563Z,7.40
2017-12-22T05:44:06.525Z,7.40
2017-12-22T05:46:32.502Z,7.40
2017-12-22T05:48:58.463Z,7.50
2017-12-22T05:51:24.436Z,7.40
2017-12-22T05:53:50.384Z,7.40
2017-12-22T05:56:16.339Z,7.50
2017-12-22T05:58:42.348Z,7.50
2017-12-22T06:01:08.303Z,7.50
2017-12-22T06:03:34.987Z,7.40
2017-12-22T06:06:00.977Z,7.40
2017-12-22T06:08:26.921Z,7.50
2017-12-22T06:10:52.884Z,7.50
2017-12-22T06:13:18.840Z,7.50
2017-12-22T06:15:44.823Z,7.50
2017-12-22T06:18:10.777Z,7.60
2017-12-22T06:20:36.720Z,7.50
2017-12-22T06:23:02.720Z,7.50
2017-12-22T06:25:28.685Z,7.50
2017-12-22T06:27:54.644Z,7.50
2017-12-22T06:30:21.359Z,7.40
2017-12-22T06:32:47.332Z,7.40
2017-12-22T06:35:13.315Z,7.40
2017-12-22T06:37:39.273Z,7.30
2017-12-22T06:40:06.170Z,7.30
2017-12-22T06:42:32.123Z,7.40
2017-12-22T06:44:58.704Z,7.50
2017-12-22T06:47:24.665Z,7.50
2017-12-22T06:49:51.356Z,7.50
2017-12-22T06:52:17.338Z,7.50
2017-12-22T06:54:43.315Z,7.50
2017-12-22T06:57:09.288Z,7.50
2017-12-22T06:59:35.271Z,7.50
2017-12-22T07:02:01.264Z,7.50
2017-12-22T07:04:27.214Z,7.50
2017-12-22T07:06:53.188Z,7.50
2017-12-22T07:09:19.385Z,7.50
2017-12-22T07:11:46.096Z,7.40
2017-12-22T07:14:12.141Z,7.40
2017-12-22T07:16:38.956Z,7.40
2017-12-22T07:19:04.909Z,7.40
2017-12-22T07:21:30.876Z,7.50
2017-12-22T07:23:56.876Z,7.40
2017-12-22T07:26:22.842Z,7.40
2017-12-22T07:28:48.816Z,7.50
2017-12-22T07:31:14.790Z,7.50
2017-12-22T07:33:40.776Z,7.40
2017-12-22T07:36:06.735Z,7.50
2017-12-22T07:38:39.767Z,7.50
2017-12-22T07:41:05.760Z,7.60
2017-12-22T07:43:32.719Z,7.60
2017-12-22T07:45:58.685Z,7.60
2017-12-22T07:48:24.672Z,7.50
2017-12-22T07:50:50.632Z,7.60
2017-12-22T07:53:16.604Z,7.50
2017-12-22T07:55:43.319Z,7.40
2017-12-22T07:58:09.276Z,7.40
2017-12-22T08:00:35.233Z,7.40
2017-12-22T08:03:01.188Z,7.50
2017-12-22T08:05:27.920Z,7.40
2017-12-22T08:07:53.909Z,7.40
2017-12-22T08:10:19.882Z,7.50
2017-12-22T08:12:45.876Z,7.50
2017-12-22T08:15:11.856Z,7.40
2017-12-22T08:17:37.804Z,7.50
2017-12-22T08:20:03.782Z,7.50
2017-12-22T08:22:29.738Z,7.40
2017-12-22T08:24:55.709Z,7.40
2017-12-22T08:27:22.412Z,7.30
2017-12-22T08:29:48.392Z,7.30
2017-12-22T08:32:14.336Z,7.40
2017-12-22T08:34:40.502Z,7.40
2017-12-22T08:37:07.183Z,7.40
2017-12-22T08:39:33.149Z,7.40
2017-12-22T08:41:59.136Z,7.40
2017-12-22T08:44:25.093Z,7.40
2017-12-22T08:46:51.832Z,7.30
2017-12-22T08:49:19.316Z,7.30
2017-12-22T08:51:46.035Z,7.30
2017-12-22T08:54:12.022Z,7.30
2017-12-22T08:56:37.976Z,7.40
2017-12-22T08:59:03.944Z,7.40
2017-12-22T09:01:29.896Z,7.40
2017-12-22T09:03:55.876Z,7.30
2017-12-22T09:06:21.838Z,7.30
2017-12-22T09:08:47.790Z,7.30
2017-12-22T09:11:14.504Z,7.40
2017-12-22T09:13:40.507Z,7.30
2017-12-22T09:16:06.471Z,7.40
2017-12-22T09:18:32.459Z,7.40
2017-12-22T09:20:58.420Z,7.40
2017-12-22T09:23:25.135Z,7.40
2017-12-22T09:25:51.516Z,7.40
2017-12-22T09:28:18.196Z,7.40
2017-12-22T09:30:44.155Z,7.40
2017-12-22T09:33:11.089Z,7.40
2017-12-22T09:35:37.800Z,7.30
2017-12-22T09:38:03.747Z,7.30
2017-12-22T09:40:30.484Z,7.30
2017-12-22T09:42:57.172Z,7.30
2017-12-22T09:45:23.152Z,7.30
2017-12-22T09:48:30.460Z,7.30
2017-12-22T09:50:56.412Z,7.20
2017-12-22T09:53:22.385Z,7.10
2017-12-22T09:55:49.299Z,7.20
2017-12-22T09:58:15.273Z,7.20
2017-12-22T10:00:41.236Z,7.30
2017-12-22T10:03:14.132Z,7.30
2017-12-22T10:05:40.072Z,7.30
2017-12-22T10:08:06.777Z,7.30
2017-12-22T10:10:32.724Z,7.30
2017-12-22T10:12:59.444Z,7.30
2017-12-22T10:15:25.401Z,7.30
2017-12-22T10:17:51.356Z,7.10
2017-12-22T10:20:17.319Z,7.30
2017-12-22T10:22:44.026Z,7.30
2017-12-22T10:25:09.986Z,7.30
2017-12-22T10:27:36.722Z,7.20
2017-12-22T10:30:04.201Z,7.30
2017-12-22T10:32:37.252Z,7.30
2017-12-22T10:35:03.225Z,7.40
2017-12-22T10:37:29.186Z,7.40
2017-12-22T10:39:55.336Z,7.40
2017-12-22T10:42:22.128Z,7.40
2017-12-22T10:44:48.079Z,7.40
2017-12-22T10:47:14.043Z,7.40
2017-12-22T10:49:39.996Z,7.40
2017-12-22T10:52:05.944Z,7.40
2017-12-22T10:54:31.988Z,7.40
2017-12-22T10:56:57.936Z,7.40
2017-12-22T10:59:23.926Z,7.50
2017-12-22T11:01:50.656Z,7.50
2017-12-22T11:04:18.104Z,7.50
2017-12-22T11:06:44.078Z,7.50
2017-12-22T11:09:10.255Z,7.50
2017-12-22T11:11:36.215Z,7.50
2017-12-22T11:14:02.175Z,7.40
2017-12-22T11:16:28.148Z,7.40
2017-12-22T11:18:54.870Z,7.20
2017-12-22T11:21:21.587Z,7.30
2017-12-22T11:23:47.720Z,7.30
2017-12-22T11:26:13.672Z,7.40
2017-12-22T11:28:39.669Z,7.40
2017-12-22T11:31:05.632Z,7.40
2017-12-22T11:33:31.588Z,7.30
2017-12-22T11:35:57.549Z,7.50
2017-12-22T11:38:24.258Z,7.60
2017-12-22T11:40:50.212Z,7.60
2017-12-22T11:43:16.935Z,7.50
2017-12-22T11:45:43.668Z,7.50
2017-12-22T11:48:10.340Z,7.60
2017-12-22T11:50:36.332Z,7.60
2017-12-22T11:53:03.072Z,7.50
2017-12-22T11:55:36.628Z,7.60
2017-12-22T11:58:02.615Z,7.50
2017-12-22T12:00:28.607Z,7.50
2017-12-22T12:02:54.586Z,7.60
2017-12-22T12:05:20.577Z,7.60
2017-12-22T12:07:47.300Z,7.60
2017-12-22T12:10:14.056Z,7.60
2017-12-22T12:12:40.056Z,7.60
2017-12-22T12:15:06.029Z,7.60
2017-12-22T12:17:31.987Z,7.60
2017-12-22T12:19:57.936Z,7.60
2017-12-22T12:22:24.636Z,7.60
2017-12-22T12:24:50.611Z,7.60
2017-12-22T12:27:16.565Z,7.50
2017-12-22T12:29:42.556Z,7.50
2017-12-22T12:32:08.533Z,7.50
2017-12-22T12:34:34.504Z,7.60
2017-12-22T12:37:01.712Z,7.60
2017-12-22T12:39:27.700Z,7.70
2017-12-22T12:41:53.685Z,7.80
2017-12-22T12:44:19.661Z,7.70
2017-12-22T12:46:45.622Z,7.70
2017-12-22T12:49:11.596Z,7.70
2017-12-22T12:51:37.587Z,7.80
2017-12-22T12:54:03.549Z,7.80
2017-12-22T12:56:29.512Z,7.80
2017-12-22T12:58:55.475Z,7.90
2017-12-22T13:01:21.460Z,7.80
2017-12-22T13:03:47.453Z,7.80
2017-12-22T13:06:14.164Z,7.80
2017-12-22T13:08:40.124Z,7.80
2017-12-22T13:11:06.944Z,7.70
2017-12-22T13:13:32.908Z,7.70
2017-12-22T13:15:58.874Z,7.80
2017-12-22T13:18:25.014Z,7.80
2017-12-22T13:20:52.452Z,7.90
2017-12-22T13:23:18.428Z,7.90
2017-12-22T13:25:44.428Z,7.90
2017-12-22T13:28:11.142Z,7.90
2017-12-22T13:30:37.105Z,8.00
2017-12-22T13:33:03.084Z,7.90
2017-12-22T13:35:29.052Z,7.90
2017-12-22T13:37:54.996Z,7.90
2017-12-22T13:40:21.257Z,7.90
2017-12-22T13:42:47.228Z,7.90
2017-12-22T13:45:13.187Z,7.90
2017-12-22T13:47:39.528Z,7.80
2017-12-22T13:50:05.700Z,7.80
2017-12-22T13:52:31.682Z,7.70
2017-12-22T13:54:57.674Z,7.70
2017-12-22T13:57:23.652Z,7.80
2017-12-22T13:59:49.620Z,7.80
2017-12-22T14:02:15.995Z,7.90
2017-12-22T14:04:41.976Z,7.80
2017-12-22T14:07:07.932Z,7.80
2017-12-22T14:09:34.651Z,7.80
2017-12-22T14:12:00.616Z,7.80
2017-12-22T14:14:26.581Z,7.80
2017-12-22T14:16:52.573Z,7.80
2017-12-22T14:19:18.602Z,7.90
2017-12-22T14:21:45.280Z,7.70
2017-12-22T14:24:11.994Z,7.70
2017-12-22T14:26:37.976Z,7.70
2017-12-22T14:29:03.950Z,7.80
2017-12-22T14:31:29.902Z,7.70
2017-12-22T14:33:56.928Z,7.70
2017-12-22T14:36:22.892Z,7.70
2017-12-22T14:38:49.601Z,7.80
2017-12-22T14:41:16.335Z,7.70
2017-12-22T14:43:43.027Z,7.60
2017-12-22T14:46:08.999Z,7.60
2017-12-22T14:48:35.712Z,7.60
2017-12-22T14:51:01.676Z,7.60
2017-12-22T14:53:27.633Z,7.50
2017-12-22T14:55:53.624Z,7.50
2017-12-22T14:58:19.589Z,7.60
2017-12-22T15:00:45.595Z,7.60
2017-12-22T15:03:11.583Z,7.50
2017-12-22T15:05:37.558Z,7.50
2017-12-22T15:08:03.919Z,7.40
2017-12-22T15:10:30.634Z,7.40
2017-12-22T15:12:56.583Z,7.40
2017-12-22T15:15:23.312Z,7.40
2017-12-22T15:17:50.021Z,7.40
2017-12-22T15:20:16.016Z,7.40
2017-12-22T15:22:42.300Z,7.50
2017-12-22T15:25:08.253Z,7.50
2017-12-22T15:27:34.228Z,7.40
2017-12-22T15:30:00.470Z,7.40
2017-12-22T15:32:27.167Z,7.80
2017-12-22T15:34:53.175Z,7.80
2017-12-22T15:37:19.152Z,7.70
2017-12-22T15:39:45.868Z,7.50
2017-12-22T15:42:11.875Z,7.50
2017-12-22T15:44:37.867Z,7.50
2017-12-22T15:47:10.704Z,7.40
2017-12-22T15:49:36.732Z,7.40
2017-12-22T15:52:02.713Z,7.30
2017-12-22T15:54:28.663Z,7.20
2017-12-22T15:56:54.612Z,7.30
2017-12-22T15:59:21.332Z,7.20
2017-12-22T16:01:47.284Z,7.20
2017-12-22T16:04:13.243Z,7.20
2017-12-22T16:06:39.408Z,7.20
2017-12-22T16:09:05.364Z,7.10
2017-12-22T16:11:31.332Z,7.10
2017-12-22T16:13:57.326Z,7.10
2017-12-22T16:16:23.611Z,6.90
2017-12-22T16:18:50.328Z,6.90
2017-12-22T16:21:16.309Z,6.90
2017-12-22T16:23:42.275Z,7.00
2017-12-22T16:26:08.231Z,7.00
2017-12-22T16:28:34.216Z,6.90
2017-12-22T16:31:00.180Z,7.00
2017-12-22T16:33:26.147Z,7.00
2017-12-22T16:35:52.132Z,7.00
2017-12-22T16:38:18.103Z,7.00
2017-12-22T16:40:44.058Z,7.10
2017-12-22T16:43:10.024Z,7.10
2017-12-22T16:45:35.972Z,7.10
2017-12-22T16:48:02.704Z,7.00
2017-12-22T16:50:28.670Z,7.00
2017-12-22T16:52:54.629Z,7.00
2017-12-22T16:55:20.597Z,7.00
2017-12-22T16:57:47.313Z,7.10
2017-12-22T17:00:13.287Z,7.10
2017-12-22T17:02:39.267Z,7.00
2017-12-22T17:05:05.954Z,6.90
2017-12-22T17:07:31.928Z,6.90
2017-12-22T17:09:58.632Z,6.90
2017-12-22T17:12:24.588Z,6.90
2017-12-22T17:14:51.267Z,6.80
2017-12-22T17:17:17.239Z,6.70
2017-12-22T17:19:43.960Z,6.80
2017-12-22T17:22:09.928Z,6.80
2017-12-22T17:24:35.907Z,6.80
2017-12-22T17:27:01.868Z,6.80
2017-12-22T17:29:27.861Z,6.70
2017-12-22T17:31:54.552Z,6.70
2017-12-22T17:34:20.511Z,6.70
2017-12-22T17:36:46.833Z,6.70
2017-12-22T17:39:12.795Z,6.80
2017-12-22T17:41:38.752Z,6.70
2017-12-22T17:44:04.722Z,6.70
2017-12-22T17:46:31.415Z,6.70
2017-12-22T17:49:04.478Z,6.70
2017-12-22T17:51:30.431Z,6.70
2017-12-22T17:53:56.402Z,6.70
2017-12-22T17:56:22.655Z,6.60
2017-12-22T17:58:48.626Z,6.60
2017-12-22T18:01:15.336Z,6.60
2017-12-22T18:03:41.309Z,6.60
2017-12-22T18:06:07.268Z,6.60
2017-12-22T18:08:33.251Z,6.50
2017-12-22T18:10:59.209Z,6.50
2017-12-22T18:13:25.179Z,6.50
2017-12-22T18:15:51.889Z,6.50
2017-12-22T18:18:18.018Z,6.50
2017-12-22T18:20:43.992Z,6.60
2017-12-22T18:23:09.944Z,6.60
2017-12-22T18:25:35.936Z,6.60
2017-12-22T18:28:01.926Z,6.70
2017-12-22T18:30:28.624Z,6.50
2017-12-22T18:32:54.584Z,6.40
2017-12-22T18:35:21.612Z,6.40
2017-12-22T18:37:47.653Z,6.40
2017-12-22T18:40:14.432Z,6.20
2017-12-22T18:42:40.414Z,6.20
2017-12-22T18:45:07.185Z,6.30
2017-12-22T18:47:33.171Z,6.30
2017-12-22T18:50:00.213Z,6.50
2017-12-22T18:52:26.172Z,6.50
2017-12-22T18:54:52.136Z,6.60
2017-12-22T18:57:18.093Z,6.60
2017-12-22T18:59:45.754Z,6.50
2017-12-22T19:02:12.459Z,6.50
2017-12-22T19:04:38.454Z,6.50
2017-12-22T19:07:04.428Z,6.50
2017-12-22T19:09:31.144Z,6.50
2017-12-22T19:11:57.112Z,6.50
2017-12-22T19:14:23.085Z,6.50
2017-12-22T19:16:50.525Z,6.50
2017-12-22T19:19:16.852Z,6.50
2017-12-22T19:21:42.834Z,6.60
2017-12-22T19:24:08.800Z,6.70
2017-12-22T19:26:34.759Z,6.60
2017-12-22T19:29:01.453Z,6.80
2017-12-22T19:31:34.302Z,6.80
2017-12-22T19:34:00.296Z,6.80
2017-12-22T19:36:33.330Z,6.80
2017-12-22T19:38:59.520Z,6.80
2017-12-22T19:41:26.236Z,6.70
2017-12-22T19:43:52.201Z,6.70
2017-12-22T19:46:18.403Z,6.70
2017-12-22T19:48:45.263Z,6.80
2017-12-22T19:51:11.225Z,6.80
2017-12-22T19:53:37.232Z,6.70
2017-12-22T19:56:03.196Z,6.70
2017-12-22T19:58:29.169Z,6.70
2017-12-22T20:00:55.516Z,6.70
2017-12-22T20:03:26.400Z,6.70
2017-12-22T20:06:00.113Z,6.70
2017-12-22T20:08:26.812Z,6.80
2017-12-22T20:10:52.768Z,6.80
2017-12-22T20:13:19.514Z,6.80
2017-12-22T20:15:45.596Z,6.80
2017-12-22T20:18:11.571Z,6.70
2017-12-22T20:20:37.560Z,6.70
2017-12-22T20:23:04.308Z,6.60
2017-12-22T20:25:31.012Z,6.70
2017-12-22T20:27:56.968Z,6.70
2017-12-22T20:30:23.688Z,6.70
2017-12-22T20:32:49.654Z,6.70
2017-12-22T20:35:15.604Z,6.70
2017-12-22T20:37:41.594Z,6.70
2017-12-22T20:40:07.564Z,6.70
2017-12-22T20:42:33.518Z,6.60
2017-12-22T20:45:00.260Z,6.50
2017-12-22T20:47:26.329Z,6.50
2017-12-22T20:49:52.315Z,6.60
2017-12-22T20:52:18.308Z,6.60
2017-12-22T20:54:44.261Z,6.50
2017-12-22T20:57:17.302Z,6.50
2017-12-22T20:59:43.539Z,6.40
2017-12-22T21:02:10.980Z,6.50
2017-12-22T21:04:36.948Z,6.50
2017-12-22T21:07:03.252Z,6.40
2017-12-22T21:09:29.989Z,6.40
2017-12-22T21:11:56.704Z,6.40
2017-12-22T21:14:22.681Z,6.40
2017-12-22T21:16:48.638Z,6.50
2017-12-22T21:19:14.644Z,6.40
2017-12-22T21:21:40.624Z,6.30
2017-12-22T21:24:07.403Z,6.40
2017-12-22T21:26:33.397Z,6.40
2017-12-22T21:28:59.496Z,6.40
2017-12-22T21:31:25.455Z,6.40
2017-12-22T21:33:51.486Z,6.50
2017-12-22T21:36:17.477Z,6.40
2017-12-22T21:38:44.188Z,6.50
2017-12-22T21:41:10.150Z,6.50
2017-12-22T21:43:36.131Z,6.50
2017-12-22T21:46:02.075Z,6.50
2017-12-22T21:48:28.764Z,6.50
2017-12-22T21:50:54.924Z,6.50
2017-12-22T21:53:20.886Z,6.50
2017-12-22T21:55:46.841Z,6.50
2017-12-22T21:58:12.829Z,6.40
2017-12-22T22:00:38.777Z,6.40
2017-12-22T22:03:04.744Z,6.60
2017-12-22T22:05:31.464Z,6.80
2017-12-22T22:07:57.433Z,6.80
2017-12-22T22:10:23.480Z,6.80
2017-12-22T22:12:49.572Z,6.70
2017-12-22T22:15:15.540Z,6.60
2017-12-22T22:17:41.499Z,6.50
2017-12-22T22:20:08.430Z,6.60
2017-12-22T22:22:35.129Z,6.60
2017-12-22T22:25:01.088Z,6.60
2017-12-22T22:27:27.068Z,6.50
2017-12-22T22:29:53.021Z,6.50
2017-12-22T22:32:18.980Z,6.60
2017-12-22T22:34:44.969Z,6.50
2017-12-22T22:37:11.680Z,6.50
2017-12-22T22:39:37.660Z,6.50
2017-12-22T22:42:03.620Z,6.60
2017-12-22T22:44:29.584Z,6.70
2017-12-22T22:46:56.281Z,6.50
2017-12-22T22:49:22.279Z,6.50
2017-12-22T22:51:48.224Z,6.60
2017-12-22T22:54:14.184Z,6.50
2017-12-22T22:56:40.904Z,6.50
2017-12-22T22:59:06.864Z,6.50
2017-12-22T23:01:32.855Z,6.50
2017-12-22T23:03:58.810Z,6.50
2017-12-22T23:06:25.083Z,6.60
2017-12-22T23:08:51.043Z,6.60
2017-12-22T23:11:17.778Z,6.60
2017-12-22T23:13:44.497Z,6.50
2017-12-22T23:16:11.223Z,6.50
2017-12-22T23:18:37.200Z,6.50
2017-12-22T23:21:03.167Z,6.60
2017-12-22T23:23:29.149Z,6.60
2017-12-22T23:25:55.104Z,6.50
2017-12-22T23:28:21.136Z,6.50
2017-12-22T23:30:47.108Z,6.50
2017-12-22T23:33:13.059Z,6.50
2017-12-22T23:35:39.040Z,6.30
2017-12-22T23:38:04.999Z,6.30
2017-12-22T23:40:30.965Z,6.40
2017-12-22T23:42:57.676Z,6.40
2017-12-22T23:45:23.641Z,6.40
2017-12-22T23:47:49.592Z,6.50
2017-12-22T23:50:15.571Z,6.50
2017-12-22T23:52:42.253Z,6.40
2017-12-22T23:55:08.211Z,6.40
2017-12-22T23:57:34.200Z,6.30
